»·PEaware :: N9135K KRNM-KONT

N9135K :: KRNM-KONT

FLIGHT INFORMATION

Flight Status: Arrived
Operator: Privately registered:
United States
More flights under this callsign
Pilot: John R. (31973)
Aircraft: CESSNA 172 SKYHAWK
(C172)
More flights by this aircraft type
Origin: KRNM Ramona
United States
Destination: KONT Ontario Intl
United States
More flights between these airports :: More routes between these airports
Route:
File this flight plan on PilotEdge
Remarks:
Altitude:
(Current/Filed)
6,500ft
Speed:
(Current/Filed)
90kts
Departed: 10-Nov-20 02:03 PM
Arrived: 10-Nov-20 02:52 PM
Distance/Time
Traveled:
70nm/0:48
Distance/Time
To Go:
Arrived

Flight Plot

Page will automatically refresh every two minutes.


Map Options




Map Legend


Flown Route
Filed Route
Departure Airport
Arrival Airport
Navaid (VOR, NDB)
Fix

Horizontal Profiles

Position Reports

Time Latitude Longitude Heading Altitude Ground
Speed
10-Nov-20 13:52 33.039530 -116.908931 10 1396ft 0kts
10-Nov-20 13:53 33.039530 -116.908931 10 1396ft 0kts
10-Nov-20 13:54 33.039531 -116.908931 10 1396ft 0kts
10-Nov-20 13:55 33.039531 -116.908931 10 1396ft 0kts
10-Nov-20 13:56 33.039531 -116.908931 10 1396ft 0kts
10-Nov-20 13:57 33.039531 -116.908931 10 1396ft 0kts
10-Nov-20 13:58 33.039532 -116.908931 10 1396ft 0kts
10-Nov-20 13:59 33.038848 -116.907750 149 1396ft 4kts
10-Nov-20 14:00 33.038498 -116.907281 186 1396ft 0kts
10-Nov-20 14:01 33.038495 -116.907281 186 1396ft 0kts
10-Nov-20 14:02 33.040172 -116.922145 280 1575ft 89kts
10-Nov-20 14:03 33.061941 -116.930855 3 2248ft 94kts
10-Nov-20 14:04 33.087221 -116.924273 19 2937ft 92kts
10-Nov-20 14:05 33.106789 -116.941746 315 3520ft 99kts
10-Nov-20 14:06 33.126481 -116.966330 316 3924ft 97kts
10-Nov-20 14:07 33.147628 -116.983990 328 4481ft 89kts
10-Nov-20 14:08 33.168435 -116.998586 327 5040ft 84kts
10-Nov-20 14:09 33.188029 -117.012242 324 5597ft 79kts
10-Nov-20 14:10 33.206788 -117.025321 321 6155ft 76kts
10-Nov-20 14:11 33.225562 -117.038478 319 6528ft 88kts
10-Nov-20 14:12 33.246759 -117.053229 320 6499ft 87kts
10-Nov-20 14:13 33.267838 -117.067953 320 6500ft 88kts
10-Nov-20 14:14 33.289083 -117.082801 320 6500ft 88kts
10-Nov-20 14:15 33.310490 -117.097769 320 6500ft 88kts
10-Nov-20 14:16 33.331830 -117.112699 320 6500ft 89kts
10-Nov-20 14:17 33.353162 -117.127632 320 6500ft 89kts
10-Nov-20 14:18 33.374543 -117.142609 320 6500ft 89kts
10-Nov-20 14:19 33.395898 -117.157576 320 6500ft 89kts
10-Nov-20 14:20 33.417257 -117.172554 320 6500ft 89kts
10-Nov-20 14:21 33.438579 -117.187515 320 6500ft 89kts
10-Nov-20 14:22 33.459971 -117.202534 320 6500ft 89kts
10-Nov-20 14:23 33.481384 -117.217576 320 6500ft 89kts
10-Nov-20 14:24 33.502751 -117.232555 320 6500ft 89kts
10-Nov-20 14:25 33.524113 -117.247575 320 6500ft 89kts
10-Nov-20 14:26 33.545453 -117.262592 320 6500ft 89kts
10-Nov-20 14:27 33.566801 -117.277624 320 6500ft 89kts
10-Nov-20 14:28 33.588161 -117.292672 320 6500ft 89kts
10-Nov-20 14:29 33.609542 -117.307744 320 6500ft 89kts
10-Nov-20 14:30 33.630918 -117.322821 320 6500ft 89kts
10-Nov-20 14:31 33.652273 -117.337893 320 6500ft 89kts
10-Nov-20 14:32 33.674270 -117.353431 322 6143ft 91kts
10-Nov-20 14:33 33.695356 -117.368326 325 5531ft 86kts
10-Nov-20 14:34 33.716295 -117.383002 328 4932ft 88kts
10-Nov-20 14:35 33.737984 -117.398133 329 4489ft 87kts
10-Nov-20 14:36 33.759040 -117.412833 329 4501ft 88kts
10-Nov-20 14:37 33.780315 -117.427696 329 4500ft 88kts
10-Nov-20 14:38 33.801603 -117.442577 329 4500ft 88kts
10-Nov-20 14:39 33.822826 -117.457421 329 4500ft 88kts
10-Nov-20 14:40 33.844142 -117.472339 329 4500ft 88kts
10-Nov-20 14:42 33.865431 -117.487244 329 4500ft 88kts
10-Nov-20 14:43 33.887533 -117.500104 338 4497ft 89kts
10-Nov-20 14:44 33.914515 -117.512237 339 3904ft 112kts
10-Nov-20 14:45 33.943365 -117.525157 339 3209ft 106kts
10-Nov-20 14:46 33.970563 -117.537346 339 2518ft 99kts
10-Nov-20 14:47 33.995666 -117.548601 339 1984ft 88kts
10-Nov-20 14:48 34.015222 -117.556003 9 1997ft 67kts
10-Nov-20 14:49 34.034337 -117.554883 2 2004ft 70kts
10-Nov-20 14:50 34.051524 -117.561729 299 1808ft 73kts
10-Nov-20 14:51 34.054950 -117.585489 269 963ft 58kts
10-Nov-20 14:52 34.054168 -117.594533 222 947ft 0kts
10-Nov-20 14:53 34.054168 -117.594534 222 947ft 0kts
10-Nov-20 14:54 34.053679 -117.601959 270 947ft 32kts
10-Nov-20 14:55 34.053688 -117.609750 269 947ft 18kts
10-Nov-20 14:56 34.052628 -117.611655 180 947ft 0kts

Navigation Log

Ident Type
Flight plan parsing failed, navigation log unavailable